Time;durP1;ratioP1;P1;durP2;ratioP2;P2;SDS_P1;SDS_P2;PMS_P1;PMS_P2;Temp;Humidity;BMP_temperature;BMP_pressure;BME280_temperature;BME280_humidity;BME280_pressure;Samples;Min_cycle;Max_cycle;Signal;HPM_P1;HPM_P2
2023/06/12 00:02:42;;;;;;;3.58;2.58;;;;;;;;;;6286699;28;20263;-70
2023/06/12 00:05:48;;;;;;;4.10;2.42;;;;;;;;;;6286014;28;20291;-69
2023/06/12 00:08:53;;;;;;;2.35;2.30;;;;;;;;;;6285928;28;20292;-70
2023/06/12 00:11:57;;;;;;;5.15;2.63;;;;;;;;;;6286315;28;20267;-70
2023/06/12 00:15:02;;;;;;;7.40;3.00;;;;;;;;;;6285844;28;20302;-70
2023/06/12 00:18:07;;;;;;;3.40;2.55;;;;;;;;;;6285997;28;20267;-71
2023/06/12 00:21:13;;;;;;;2.60;2.50;;;;;;;;;;6285519;28;20599;-70
2023/06/12 00:24:19;;;;;;;3.88;2.55;;;;;;;;;;6286674;28;20299;-70
2023/06/12 00:27:23;;;;;;;4.72;2.95;;;;;;;;;;6286365;28;20593;-70
2023/06/12 00:30:28;;;;;;;9.13;3.08;;;;;;;;;;6286004;28;20307;-70
2023/06/12 00:33:33;;;;;;;8.20;3.17;;;;;;;;;;6284689;28;20267;-71
2023/06/12 00:36:39;;;;;;;5.25;2.95;;;;;;;;;;6286436;28;20559;-69
2023/06/12 00:39:43;;;;;;;3.60;3.35;;;;;;;;;;6287273;28;20319;-70
2023/06/12 00:42:50;;;;;;;3.28;3.17;;;;;;;;;;6285919;28;20275;-71
2023/06/12 00:45:55;;;;;;;6.93;3.65;;;;;;;;;;6287183;28;20311;-70
2023/06/12 00:49:01;;;;;;;9.82;3.60;;;;;;;;;;6286399;28;20290;-70
2023/06/12 00:52:12;;;;;;;3.67;3.20;;;;;;;;;;6286255;28;20595;-70
2023/06/12 00:55:17;;;;;;;3.28;3.17;;;;;;;;;;6285460;28;20291;-71
2023/06/12 00:58:22;;;;;;;3.63;2.92;;;;;;;;;;6286891;28;20251;-70
2023/06/12 01:01:29;;;;;;;3.20;3.00;;;;;;;;;;6285098;28;20446;-70
2023/06/12 01:04:34;;;;;;;3.50;3.03;;;;;;;;;;6285025;28;20283;-71
2023/06/12 01:07:43;;;;;;;3.55;3.25;;;;;;;;;;6284815;28;20278;-70
2023/06/12 01:10:53;;;;;;;5.57;2.88;;;;;;;;;;6283037;28;20298;-70
2023/06/12 01:13:58;;;;;;;3.25;3.03;;;;;;;;;;6274695;28;20565;-71
2023/06/12 01:17:03;;;;;;;6.38;3.03;;;;;;;;;;6259813;28;20393;-71
2023/06/12 01:20:11;;;;;;;3.20;3.03;;;;;;;;;;6261788;28;20457;-70
2023/06/12 01:23:32;;;;;;;5.15;3.05;;;;;;;;;;6284173;28;20271;-71
2023/06/12 01:26:58;;;;;;;4.53;3.30;;;;;;;;;;6282653;28;20282;-71
2023/06/12 01:30:46;;;;;;;4.40;2.75;;;;;;;;;;6283777;28;20291;-69
2023/06/12 01:34:01;;;;;;;3.08;2.88;;;;;;;;;;6191572;28;20296;-70
2023/06/12 01:37:13;;;;;;;9.50;3.17;;;;;;;;;;6209420;28;20423;-72
2023/06/12 01:40:20;;;;;;;6.97;3.40;;;;;;;;;;6231871;28;20300;-70
2023/06/12 01:43:27;;;;;;;4.15;3.05;;;;;;;;;;6233204;28;20590;-70
2023/06/12 01:46:32;;;;;;;6.13;3.50;;;;;;;;;;6232791;28;20259;-70
2023/06/12 01:49:38;;;;;;;11.15;3.08;;;;;;;;;;6215884;28;20349;-70
2023/06/12 01:52:43;;;;;;;9.02;3.15;;;;;;;;;;6249418;28;20284;-70
2023/06/12 01:55:49;;;;;;;5.47;3.30;;;;;;;;;;6216650;28;20469;-71
2023/06/12 01:58:59;;;;;;;11.30;3.78;;;;;;;;;;6248271;28;20628;-71
2023/06/12 02:02:16;;;;;;;16.90;3.40;;;;;;;;;;6216645;28;20554;-71
2023/06/12 02:05:22;;;;;;;4.82;2.95;;;;;;;;;;6279848;28;20299;-69
2023/06/12 02:08:27;;;;;;;7.72;3.38;;;;;;;;;;6257226;28;20452;-70
2023/06/12 02:11:32;;;;;;;3.20;3.00;;;;;;;;;;6263142;28;20263;-69
2023/06/12 02:14:36;;;;;;;3.58;2.85;;;;;;;;;;6283694;28;20291;-69
2023/06/12 02:17:41;;;;;;;3.22;2.85;;;;;;;;;;6287736;28;20283;-71
2023/06/12 02:20:49;;;;;;;6.53;2.60;;;;;;;;;;6287019;28;20330;-71
2023/06/12 02:23:54;;;;;;;2.92;2.72;;;;;;;;;;6286787;28;20464;-70
2023/06/12 02:26:58;;;;;;;3.15;2.80;;;;;;;;;;6287584;28;20271;-70
2023/06/12 02:30:03;;;;;;;2.92;2.63;;;;;;;;;;6288104;28;20315;-70
2023/06/12 02:33:12;;;;;;;5.88;2.92;;;;;;;;;;6287022;28;20291;-71
2023/06/12 02:36:20;;;;;;;4.18;2.40;;;;;;;;;;6286915;28;20590;-70
2023/06/12 02:39:25;;;;;;;2.80;2.70;;;;;;;;;;6288217;28;20344;-69
2023/06/12 02:42:30;;;;;;;3.35;2.60;;;;;;;;;;6287098;28;20271;-71
2023/06/12 02:45:35;;;;;;;2.92;2.67;;;;;;;;;;6288002;28;20291;-71
2023/06/12 02:48:42;;;;;;;6.13;2.80;;;;;;;;;;6286887;28;20298;-70
2023/06/12 02:51:49;;;;;;;3.45;3.15;;;;;;;;;;6286982;28;20290;-70
2023/06/12 02:54:54;;;;;;;3.08;2.85;;;;;;;;;;6287620;28;20320;-71
2023/06/12 02:57:59;;;;;;;2.80;2.63;;;;;;;;;;6286697;28;20563;-70
2023/06/12 03:01:04;;;;;;;2.55;2.42;;;;;;;;;;6286124;28;20450;-70
2023/06/12 03:04:10;;;;;;;2.85;2.67;;;;;;;;;;6300187;28;20287;-70
2023/06/12 03:07:16;;;;;;;3.17;2.85;;;;;;;;;;6277488;28;20281;-71
2023/06/12 03:10:21;;;;;;;3.88;2.47;;;;;;;;;;6268335;28;20468;-69
2023/06/12 03:13:26;;;;;;;4.20;2.42;;;;;;;;;;6285355;28;20295;-70
2023/06/12 03:16:31;;;;;;;2.72;2.50;;;;;;;;;;6286188;28;20266;-70
2023/06/12 03:19:36;;;;;;;2.20;2.20;;;;;;;;;;6286919;28;20295;-70
2023/06/12 03:22:42;;;;;;;2.45;2.35;;;;;;;;;;6285999;28;20448;-71
2023/06/12 03:25:48;;;;;;;2.40;2.30;;;;;;;;;;6285868;28;20279;-71
2023/06/12 03:28:54;;;;;;;2.58;2.22;;;;;;;;;;6284944;28;20492;-71
2023/06/12 03:31:59;;;;;;;4.20;2.35;;;;;;;;;;6287303;28;20552;-70
2023/06/12 03:35:13;;;;;;;5.18;2.47;;;;;;;;;;6285332;28;20588;-70
2023/06/12 03:38:24;;;;;;;2.40;2.22;;;;;;;;;;6276966;28;20582;-69
2023/06/12 03:41:31;;;;;;;4.72;2.85;;;;;;;;;;6260929;28;20569;-71
2023/06/12 03:44:38;;;;;;;2.92;2.70;;;;;;;;;;6292819;28;20304;-72
2023/06/12 03:47:43;;;;;;;2.58;2.50;;;;;;;;;;6261349;28;20299;-70
2023/06/12 03:50:50;;;;;;;7.05;2.83;;;;;;;;;;6261036;28;20279;-70
2023/06/12 03:53:57;;;;;;;7.20;2.75;;;;;;;;;;6260938;28;20477;-70
2023/06/12 03:57:01;;;;;;;2.70;2.50;;;;;;;;;;6293744;28;20280;-69
2023/06/12 04:00:08;;;;;;;2.72;2.28;;;;;;;;;;6260194;28;20315;-70
2023/06/12 04:03:24;;;;;;;11.52;2.92;;;;;;;;;;6265758;28;20482;-71
2023/06/12 04:06:32;;;;;;;4.82;2.75;;;;;;;;;;6260467;28;20272;-69
2023/06/12 04:09:38;;;;;;;4.40;2.30;;;;;;;;;;6293662;28;20291;-70
2023/06/12 04:12:43;;;;;;;2.85;2.63;;;;;;;;;;6286167;28;20295;-69
2023/06/12 04:15:48;;;;;;;9.88;2.50;;;;;;;;;;6286505;28;20239;-69
2023/06/12 04:18:53;;;;;;;2.75;2.55;;;;;;;;;;6284443;28;20298;-69
2023/06/12 04:22:00;;;;;;;2.22;2.15;;;;;;;;;;6284913;28;20275;-71
2023/06/12 04:25:08;;;;;;;2.42;2.22;;;;;;;;;;6284336;28;20295;-71
2023/06/12 04:28:16;;;;;;;2.30;2.20;;;;;;;;;;6283976;28;20323;-70
2023/06/12 04:31:21;;;;;;;4.50;2.60;;;;;;;;;;6286151;28;20239;-70
2023/06/12 04:34:26;;;;;;;7.15;2.10;;;;;;;;;;6283904;28;20298;-69
2023/06/12 04:37:31;;;;;;;2.65;2.20;;;;;;;;;;6283857;28;20393;-71
2023/06/12 04:40:37;;;;;;;3.03;2.47;;;;;;;;;;6284551;28;20275;-71
2023/06/12 04:43:43;;;;;;;7.20;2.30;;;;;;;;;;6283624;28;20298;-70
2023/06/12 04:46:48;;;;;;;3.05;2.30;;;;;;;;;;6284321;28;20438;-70
2023/06/12 04:49:57;;;;;;;4.60;2.53;;;;;;;;;;6279405;28;73014;-68
2023/06/12 04:53:02;;;;;;;2.50;2.30;;;;;;;;;;6283707;28;20536;-71
2023/06/12 04:56:09;;;;;;;1.90;1.90;;;;;;;;;;6284364;28;20457;-69
2023/06/12 04:59:16;;;;;;;2.53;2.00;;;;;;;;;;6285191;28;20291;-70
2023/06/12 05:02:22;;;;;;;2.65;2.53;;;;;;;;;;6283365;28;20286;-70
2023/06/12 05:05:29;;;;;;;3.60;2.65;;;;;;;;;;6285610;28;20255;-71
2023/06/12 05:08:35;;;;;;;3.22;2.10;;;;;;;;;;6283608;28;20307;-70
2023/06/12 05:11:40;;;;;;;10.10;2.75;;;;;;;;;;6283838;28;20290;-71
2023/06/12 05:14:46;;;;;;;6.53;2.13;;;;;;;;;;6283073;28;20295;-70
2023/06/12 05:17:51;;;;;;;1.98;1.90;;;;;;;;;;6283143;28;20290;-71
2023/06/12 05:20:58;;;;;;;3.20;2.15;;;;;;;;;;6283997;28;20271;-70
2023/06/12 05:24:03;;;;;;;;;;;;;;;;;;6285301;28;19991;-70
2023/06/12 05:27:10;;;;;;;;;;;;;;;;;;6285168;28;19988;-72
2023/06/12 05:30:16;;;;;;;4.37;1.80;;;;;;;;;;6282916;28;19991;-70
2023/06/12 05:33:21;;;;;;;4.47;1.98;;;;;;;;;;6283426;28;20299;-70
2023/06/12 05:36:26;;;;;;;4.50;1.83;;;;;;;;;;6283927;28;20282;-70
2023/06/12 05:39:31;;;;;;;1.95;1.92;;;;;;;;;;6282730;28;20530;-69
2023/06/12 05:42:37;;;;;;;4.20;1.98;;;;;;;;;;6282754;28;20600;-69
2023/06/12 05:45:42;;;;;;;2.00;1.77;;;;;;;;;;6285201;28;20247;-70
2023/06/12 05:48:47;;;;;;;2.38;1.95;;;;;;;;;;6284541;28;20295;-70
2023/06/12 05:51:53;;;;;;;4.15;1.90;;;;;;;;;;6286939;28;20275;-71
2023/06/12 05:54:58;;;;;;;2.28;1.95;;;;;;;;;;6287930;28;20298;-70
2023/06/12 05:58:04;;;;;;;2.25;1.90;;;;;;;;;;6287494;28;20290;-73
2023/06/12 06:01:21;;;;;;;5.10;1.70;;;;;;;;;;6288711;28;20568;-72
2023/06/12 06:04:32;;;;;;;1.73;1.73;;;;;;;;;;6287803;28;20535;-72
2023/06/12 06:07:38;;;;;;;9.80;2.00;;;;;;;;;;6287926;28;20291;-71
2023/06/12 06:10:43;;;;;;;2.78;1.70;;;;;;;;;;6288519;28;20284;-70
2023/06/12 06:13:49;;;;;;;8.45;1.70;;;;;;;;;;6279265;28;20299;-69
2023/06/12 06:16:54;;;;;;;1.83;1.83;;;;;;;;;;6263034;28;20430;-70
2023/06/12 06:20:08;;;;;;;2.45;1.80;;;;;;;;;;6295809;28;20465;-70
2023/06/12 06:23:13;;;;;;;5.78;2.03;;;;;;;;;;6262522;28;20429;-71
2023/06/12 06:26:18;;;;;;;3.28;1.60;;;;;;;;;;6263078;28;20284;-71
2023/06/12 06:29:25;;;;;;;4.22;1.92;;;;;;;;;;6263455;28;20604;-71
2023/06/12 06:32:29;;;;;;;10.60;2.00;;;;;;;;;;6262278;28;20299;-70
2023/06/12 06:35:37;;;;;;;4.13;1.60;;;;;;;;;;6262680;28;20293;-71
2023/06/12 06:38:41;;;;;;;4.13;1.80;;;;;;;;;;6262118;28;20303;-70
2023/06/12 06:41:47;;;;;;;5.55;1.67;;;;;;;;;;6262787;28;20264;-71
2023/06/12 06:44:53;;;;;;;3.45;1.85;;;;;;;;;;6295125;28;20295;-71
2023/06/12 06:47:59;;;;;;;3.55;1.70;;;;;;;;;;6295213;28;20299;-71
2023/06/12 06:51:07;;;;;;;7.82;2.42;;;;;;;;;;6262539;28;20441;-70
2023/06/12 06:54:12;;;;;;;2.00;1.90;;;;;;;;;;6263222;28;20300;-70
2023/06/12 06:57:17;;;;;;;3.63;1.52;;;;;;;;;;6294601;28;20389;-71
2023/06/12 07:00:24;;;;;;;1.45;1.42;;;;;;;;;;6263421;28;20320;-71
2023/06/12 07:03:30;;;;;;;2.97;1.70;;;;;;;;;;6260355;28;20307;-70
2023/06/12 07:06:35;;;;;;;4.45;1.80;;;;;;;;;;6262282;28;20268;-70
2023/06/12 07:09:40;;;;;;;2.42;1.70;;;;;;;;;;6295766;28;20291;-71
2023/06/12 07:12:45;;;;;;;7.00;2.10;;;;;;;;;;6278294;28;20292;-71
2023/06/12 07:15:52;;;;;;;3.05;1.90;;;;;;;;;;6263086;28;20283;-72
2023/06/12 07:18:59;;;;;;;1.90;1.90;;;;;;;;;;6261100;28;20287;-73
2023/06/12 07:22:04;;;;;;;3.63;1.77;;;;;;;;;;6261372;28;20268;-71
2023/06/12 07:25:10;;;;;;;3.72;2.03;;;;;;;;;;6261815;28;20564;-70
2023/06/12 07:28:15;;;;;;;4.32;1.80;;;;;;;;;;6262121;28;20308;-70
2023/06/12 07:31:21;;;;;;;5.20;2.55;;;;;;;;;;6262364;28;20252;-71
2023/06/12 07:34:26;;;;;;;2.97;1.90;;;;;;;;;;6262153;28;20308;-71
2023/06/12 07:37:34;;;;;;;3.85;1.77;;;;;;;;;;6262460;28;20300;-73
2023/06/12 07:40:40;;;;;;;5.68;2.00;;;;;;;;;;6261814;28;20276;-71
2023/06/12 07:43:44;;;;;;;2.88;1.85;;;;;;;;;;6260441;28;20291;-71
2023/06/12 07:46:51;;;;;;;4.05;2.08;;;;;;;;;;6260472;28;20279;-71
2023/06/12 07:49:56;;;;;;;7.90;1.98;;;;;;;;;;6261583;28;20291;-72
2023/06/12 07:53:01;;;;;;;1.83;1.83;;;;;;;;;;6261728;28;20304;-71
2023/06/12 07:56:07;;;;;;;2.45;2.00;;;;;;;;;;6261148;28;20575;-72
2023/06/12 07:59:14;;;;;;;1.90;1.80;;;;;;;;;;6259751;28;20295;-71
2023/06/12 08:02:31;;;;;;;2.30;2.10;;;;;;;;;;6276695;28;20280;-72
2023/06/12 08:05:37;;;;;;;3.08;1.52;;;;;;;;;;6260724;28;20464;-71
2023/06/12 08:08:47;;;;;;;8.73;2.53;;;;;;;;;;6293851;28;20295;-72
2023/06/12 08:11:54;;;;;;;1.95;1.42;;;;;;;;;;6280767;28;20547;-72
2023/06/12 08:14:59;;;;;;;12.57;2.40;;;;;;;;;;6283382;28;20291;-70
2023/06/12 08:18:06;;;;;;;3.22;1.63;;;;;;;;;;6284588;28;20483;-71
2023/06/12 08:21:10;;;;;;;6.45;2.05;;;;;;;;;;6285469;28;20263;-71
2023/06/12 08:24:16;;;;;;;4.40;1.80;;;;;;;;;;6284872;28;20294;-72
2023/06/12 08:27:22;;;;;;;3.22;1.98;;;;;;;;;;6284254;28;20272;-72
2023/06/12 08:30:28;;;;;;;9.05;1.88;;;;;;;;;;6301102;28;20307;-71
2023/06/12 08:33:35;;;;;;;15.00;2.10;;;;;;;;;;6285846;28;20295;-72
2023/06/12 08:36:39;;;;;;;7.10;2.00;;;;;;;;;;6286278;28;20263;-70
2023/06/12 08:39:44;;;;;;;3.70;1.73;;;;;;;;;;6285669;28;20552;-71
2023/06/12 08:42:51;;;;;;;1.88;1.77;;;;;;;;;;6285695;28;20291;-72
2023/06/12 08:45:58;;;;;;;2.00;1.90;;;;;;;;;;6284636;28;20568;-71
2023/06/12 08:49:05;;;;;;;3.47;1.80;;;;;;;;;;6285532;28;20386;-71
2023/06/12 08:52:10;;;;;;;4.82;1.65;;;;;;;;;;6285234;28;20528;-72
2023/06/12 08:55:15;;;;;;;3.60;1.60;;;;;;;;;;6285636;28;20268;-71
2023/06/12 08:58:20;;;;;;;7.38;1.73;;;;;;;;;;6285392;28;20303;-71
2023/06/12 09:01:28;;;;;;;6.72;1.60;;;;;;;;;;6285853;28;20239;-70
2023/06/12 09:04:41;;;;;;;2.47;1.60;;;;;;;;;;6285325;28;20291;-71
2023/06/12 09:07:47;;;;;;;2.30;1.77;;;;;;;;;;6285310;28;20290;-72
2023/06/12 09:10:52;;;;;;;2.47;1.40;;;;;;;;;;6285571;28;20248;-71
2023/06/12 09:14:01;;;;;;;1.70;1.70;;;;;;;;;;6284868;28;20303;-70
2023/06/12 09:17:08;;;;;;;1.92;1.73;;;;;;;;;;6285247;28;20267;-71
2023/06/12 09:20:18;;;;;;;2.88;1.75;;;;;;;;;;6284532;28;20267;-70
2023/06/12 09:23:43;;;;;;;1.60;1.50;;;;;;;;;;6284450;28;20310;-71
2023/06/12 09:26:49;;;;;;;7.25;1.67;;;;;;;;;;6285959;28;20260;-72
2023/06/12 09:30:00;;;;;;;3.03;2.00;;;;;;;;;;6284444;28;20457;-71
2023/06/12 09:33:05;;;;;;;1.90;1.30;;;;;;;;;;6284520;28;20290;-71
2023/06/12 09:36:14;;;;;;;9.27;1.95;;;;;;;;;;6285115;28;20266;-70
2023/06/12 09:39:26;;;;;;;4.78;1.77;;;;;;;;;;6284681;28;20331;-72
2023/06/12 09:42:36;;;;;;;3.00;1.35;;;;;;;;;;6284332;28;20283;-71
2023/06/12 09:45:41;;;;;;;3.08;1.50;;;;;;;;;;6285153;28;20248;-70
2023/06/12 09:48:46;;;;;;;3.83;1.48;;;;;;;;;;6283933;28;20298;-72
2023/06/12 09:51:54;;;;;;;1.45;1.35;;;;;;;;;;6285204;28;20239;-71
2023/06/12 09:54:58;;;;;;;5.00;1.67;;;;;;;;;;6284319;28;20298;-71
2023/06/12 09:58:07;;;;;;;3.70;1.45;;;;;;;;;;6285592;28;20311;-71
2023/06/12 10:01:12;;;;;;;3.20;1.48;;;;;;;;;;6282993;28;20256;-72
2023/06/12 10:04:21;;;;;;;7.38;1.65;;;;;;;;;;6261901;28;20307;-71
2023/06/12 10:07:31;;;;;;;4.35;1.40;;;;;;;;;;6261457;28;20240;-72
2023/06/12 10:10:36;;;;;;;3.28;1.73;;;;;;;;;;6271771;28;20478;-71
2023/06/12 10:13:40;;;;;;;8.25;2.00;;;;;;;;;;6286655;28;20298;-71
2023/06/12 10:16:45;;;;;;;2.60;1.90;;;;;;;;;;6287288;28;20271;-71
2023/06/12 10:19:51;;;;;;;3.55;1.50;;;;;;;;;;6287513;28;20291;-70
2023/06/12 10:22:57;;;;;;;4.22;1.88;;;;;;;;;;6286959;28;20449;-72
2023/06/12 10:26:02;;;;;;;6.47;2.10;;;;;;;;;;6285281;28;20267;-71
2023/06/12 10:29:27;;;;;;;6.60;1.80;;;;;;;;;;6286239;28;20331;-71
2023/06/12 10:32:36;;;;;;;4.47;1.50;;;;;;;;;;6286296;28;20279;-71
2023/06/12 10:35:41;;;;;;;1.73;1.70;;;;;;;;;;6286047;28;20240;-70
2023/06/12 10:38:48;;;;;;;1.92;1.80;;;;;;;;;;6290294;28;20299;-71
2023/06/12 10:41:55;;;;;;;7.13;2.30;;;;;;;;;;6289717;28;20247;-71
2023/06/12 10:45:02;;;;;;;4.63;2.00;;;;;;;;;;6288267;28;20294;-72
2023/06/12 10:48:20;;;;;;;3.25;1.55;;;;;;;;;;6287977;28;20307;-71
2023/06/12 10:51:35;;;;;;;2.20;1.80;;;;;;;;;;6288652;28;20244;-71
2023/06/12 10:54:41;;;;;;;2.65;1.88;;;;;;;;;;6288211;28;20291;-71
2023/06/12 10:57:50;;;;;;;7.97;2.03;;;;;;;;;;6288162;28;20292;-70
2023/06/12 11:00:56;;;;;;;2.17;1.90;;;;;;;;;;6288338;28;20236;-70
2023/06/12 11:04:00;;;;;;;5.70;1.95;;;;;;;;;;6287784;28;20294;-70
2023/06/12 11:07:06;;;;;;;6.53;1.80;;;;;;;;;;6288320;28;20243;-71
2023/06/12 11:10:14;;;;;;;6.63;1.80;;;;;;;;;;6287366;28;20275;-71
2023/06/12 11:13:18;;;;;;;8.48;1.70;;;;;;;;;;6286302;28;20338;-70
2023/06/12 11:16:26;;;;;;;4.35;1.80;;;;;;;;;;6287988;28;20279;-70
2023/06/12 11:19:31;;;;;;;7.57;2.05;;;;;;;;;;6286424;28;20299;-71
2023/06/12 11:22:36;;;;;;;5.00;1.63;;;;;;;;;;6286503;28;20283;-70
2023/06/12 11:25:46;;;;;;;2.78;1.58;;;;;;;;;;6288274;28;20248;-71
2023/06/12 11:28:51;;;;;;;10.30;2.20;;;;;;;;;;6287566;28;20580;-71
2023/06/12 11:32:02;;;;;;;1.55;1.35;;;;;;;;;;6288085;28;20239;-70
2023/06/12 11:35:09;;;;;;;5.40;1.85;;;;;;;;;;6287530;28;20295;-71
2023/06/12 11:38:15;;;;;;;1.98;1.88;;;;;;;;;;6290943;28;20287;-71
2023/06/12 11:41:24;;;;;;;5.88;1.77;;;;;;;;;;6289124;28;20248;-70
2023/06/12 11:44:29;;;;;;;1.50;1.50;;;;;;;;;;6287047;28;20294;-71
2023/06/12 11:47:37;;;;;;;7.40;1.83;;;;;;;;;;6287101;28;20291;-71
2023/06/12 11:50:46;;;;;;;4.28;1.80;;;;;;;;;;6287773;28;20255;-71
2023/06/12 11:53:51;;;;;;;2.63;1.73;;;;;;;;;;6287104;28;20295;-72
2023/06/12 11:56:57;;;;;;;4.53;1.90;;;;;;;;;;6287670;28;20267;-71
2023/06/12 12:00:11;;;;;;;6.10;1.80;;;;;;;;;;6286872;28;20295;-71
2023/06/12 12:03:17;;;;;;;3.70;1.77;;;;;;;;;;6286634;28;20294;-71
2023/06/12 12:06:21;;;;;;;10.35;1.75;;;;;;;;;;6287192;28;20240;-71
2023/06/12 12:09:27;;;;;;;8.38;1.67;;;;;;;;;;6286983;28;20297;-70
2023/06/12 12:12:42;;;;;;;3.90;1.60;;;;;;;;;;6286240;28;20379;-70
2023/06/12 12:15:46;;;;;;;3.40;1.83;;;;;;;;;;6286674;28;20239;-69
2023/06/12 12:18:51;;;;;;;1.90;1.60;;;;;;;;;;6286275;28;20304;-70
2023/06/12 12:21:57;;;;;;;1.45;1.45;;;;;;;;;;6286938;28;20263;-69
2023/06/12 12:25:02;;;;;;;3.55;1.80;;;;;;;;;;6285991;28;20307;-70
2023/06/12 12:28:09;;;;;;;1.48;1.40;;;;;;;;;;6286106;28;20306;-70
2023/06/12 12:31:13;;;;;;;1.83;1.52;;;;;;;;;;6286631;28;20305;-71
2023/06/12 12:34:18;;;;;;;5.80;1.73;;;;;;;;;;6281760;28;80721;-71
2023/06/12 12:37:23;;;;;;;3.90;1.60;;;;;;;;;;6285490;28;20267;-71
2023/06/12 12:40:28;;;;;;;5.15;1.92;;;;;;;;;;6286100;28;20239;-70
2023/06/12 12:43:34;;;;;;;3.70;1.70;;;;;;;;;;6285674;28;20299;-70
2023/06/12 12:46:40;;;;;;;6.45;1.80;;;;;;;;;;6286327;28;20239;-70
2023/06/12 12:49:44;;;;;;;7.43;1.60;;;;;;;;;;6284459;28;20290;-71
2023/06/12 12:52:55;;;;;;;5.90;1.80;;;;;;;;;;6285829;28;20311;-70
2023/06/12 12:55:59;;;;;;;2.90;1.70;;;;;;;;;;6285781;28;20267;-70
2023/06/12 12:59:06;;;;;;;2.90;1.73;;;;;;;;;;6285472;28;20303;-70
2023/06/12 13:02:11;;;;;;;3.75;1.55;;;;;;;;;;6285253;28;20232;-71
2023/06/12 13:05:16;;;;;;;5.43;1.60;;;;;;;;;;6285569;28;20259;-70
2023/06/12 13:08:21;;;;;;;7.57;2.38;;;;;;;;;;6283974;28;20307;-70
2023/06/12 13:11:26;;;;;;;3.20;1.70;;;;;;;;;;6285902;28;20247;-71
2023/06/12 13:14:33;;;;;;;6.88;2.08;;;;;;;;;;6285094;28;20299;-71
2023/06/12 13:17:38;;;;;;;4.85;1.50;;;;;;;;;;6285378;28;20301;-70
2023/06/12 13:20:43;;;;;;;2.63;1.67;;;;;;;;;;6285614;28;20240;-70
2023/06/12 13:23:47;;;;;;;2.88;1.50;;;;;;;;;;6284906;28;20598;-70
2023/06/12 13:26:52;;;;;;;4.40;1.70;;;;;;;;;;6285634;28;20243;-71
2023/06/12 13:29:58;;;;;;;4.97;1.60;;;;;;;;;;6284394;28;20303;-70
2023/06/12 13:33:03;;;;;;;8.75;1.60;;;;;;;;;;6285175;28;20289;-72
2023/06/12 13:36:09;;;;;;;7.82;1.67;;;;;;;;;;6284918;28;20247;-70
2023/06/12 13:39:14;;;;;;;6.85;1.75;;;;;;;;;;6284336;28;20493;-70
2023/06/12 13:42:18;;;;;;;5.40;1.53;;;;;;;;;;6282973;28;20657;-70
2023/06/12 13:45:25;;;;;;;7.40;1.45;;;;;;;;;;6285331;28;20458;-71
2023/06/12 13:48:29;;;;;;;4.07;1.45;;;;;;;;;;6284259;28;20353;-70
2023/06/12 13:51:36;;;;;;;14.75;1.60;;;;;;;;;;6284563;28;20417;-70
2023/06/12 13:54:41;;;;;;;8.85;1.40;;;;;;;;;;6284621;28;20287;-71
2023/06/12 13:57:46;;;;;;;7.97;1.38;;;;;;;;;;6284157;28;20287;-71
2023/06/12 14:00:53;;;;;;;6.18;1.65;;;;;;;;;;6284885;28;20512;-70
2023/06/12 14:04:00;;;;;;;2.05;1.20;;;;;;;;;;6284470;28;20292;-70
2023/06/12 14:07:05;;;;;;;1.98;1.23;;;;;;;;;;6284479;28;20240;-70
2023/06/12 14:10:10;;;;;;;5.05;1.40;;;;;;;;;;6283914;28;20271;-70
2023/06/12 14:13:16;;;;;;;4.28;1.30;;;;;;;;;;6289172;28;20603;-68
2023/06/12 14:16:22;;;;;;;2.58;1.30;;;;;;;;;;6289925;28;20331;-71
2023/06/12 14:19:27;;;;;;;1.58;1.30;;;;;;;;;;6288687;28;20311;-71
2023/06/12 14:22:32;;;;;;;2.40;1.30;;;;;;;;;;6287347;28;20441;-71
2023/06/12 14:25:37;;;;;;;4.18;1.17;;;;;;;;;;6288072;28;20287;-71
2023/06/12 14:28:41;;;;;;;8.63;1.30;;;;;;;;;;6288269;28;20308;-71
2023/06/12 14:31:47;;;;;;;5.18;1.60;;;;;;;;;;6287288;28;20555;-72
2023/06/12 14:34:52;;;;;;;3.50;1.30;;;;;;;;;;6288564;28;20296;-71
2023/06/12 14:37:57;;;;;;;3.03;1.40;;;;;;;;;;6288437;28;20302;-71
2023/06/12 14:41:01;;;;;;;2.28;1.50;;;;;;;;;;6289389;28;20240;-71
2023/06/12 14:44:06;;;;;;;2.78;1.17;;;;;;;;;;6288537;28;20306;-70
2023/06/12 14:47:12;;;;;;;6.72;1.40;;;;;;;;;;6288288;28;20395;-72
2023/06/12 14:50:17;;;;;;;1.23;1.23;;;;;;;;;;6288500;28;20248;-72
2023/06/12 14:53:22;;;;;;;4.05;1.35;;;;;;;;;;6288393;28;20303;-71
2023/06/12 14:56:26;;;;;;;2.53;1.30;;;;;;;;;;6288841;28;20408;-71
2023/06/12 14:59:31;;;;;;;2.78;1.27;;;;;;;;;;6288182;28;20295;-71
2023/06/12 15:02:37;;;;;;;1.88;1.25;;;;;;;;;;6287828;28;20294;-71
2023/06/12 15:05:42;;;;;;;5.18;1.45;;;;;;;;;;6288468;28;20239;-72
2023/06/12 15:08:47;;;;;;;2.25;1.30;;;;;;;;;;6287853;28;20299;-72
2023/06/12 15:11:52;;;;;;;6.40;2.00;;;;;;;;;;6288292;28;20240;-72
2023/06/12 15:14:56;;;;;;;1.55;1.30;;;;;;;;;;6285974;28;20303;-72
2023/06/12 15:18:03;;;;;;;8.30;1.35;;;;;;;;;;6287511;28;20307;-71
2023/06/12 15:21:07;;;;;;;2.45;1.40;;;;;;;;;;6287850;28;20264;-71
2023/06/12 15:24:12;;;;;;;3.20;1.55;;;;;;;;;;6285223;28;20299;-72
2023/06/12 15:27:17;;;;;;;2.35;1.40;;;;;;;;;;6285573;28;20284;-71
2023/06/12 15:30:21;;;;;;;3.97;1.17;;;;;;;;;;6287176;28;20287;-71
2023/06/12 15:33:27;;;;;;;4.22;1.70;;;;;;;;;;6287487;28;20302;-70
2023/06/12 15:36:32;;;;;;;4.30;1.40;;;;;;;;;;6286437;28;20302;-71
2023/06/12 15:39:37;;;;;;;4.43;1.80;;;;;;;;;;6287074;28;20298;-72
2023/06/12 15:42:41;;;;;;;7.47;1.60;;;;;;;;;;6285788;28;20283;-71
2023/06/12 15:45:46;;;;;;;6.32;1.60;;;;;;;;;;6286215;28;20512;-73
2023/06/12 15:48:53;;;;;;;2.47;1.85;;;;;;;;;;6287845;28;20283;-71
2023/06/12 15:51:57;;;;;;;1.80;1.70;;;;;;;;;;6287538;28;20239;-72
2023/06/12 15:55:02;;;;;;;5.15;1.80;;;;;;;;;;6287268;28;20299;-72
2023/06/12 15:58:07;;;;;;;5.50;1.83;;;;;;;;;;6286512;28;20335;-71
2023/06/12 16:01:12;;;;;;;3.53;2.00;;;;;;;;;;6287017;28;20259;-71
2023/06/12 16:04:20;;;;;;;4.22;1.63;;;;;;;;;;6286238;28;20304;-72
2023/06/12 16:07:25;;;;;;;3.30;1.95;;;;;;;;;;6286210;28;20240;-71
2023/06/12 16:10:30;;;;;;;4.22;1.60;;;;;;;;;;6287111;28;20244;-72
2023/06/12 16:13:36;;;;;;;1.75;1.75;;;;;;;;;;6286495;28;20286;-71
2023/06/12 16:16:41;;;;;;;3.75;2.47;;;;;;;;;;6286893;28;20243;-71
2023/06/12 16:19:47;;;;;;;2.88;2.10;;;;;;;;;;6286303;28;20314;-72
2023/06/12 16:22:52;;;;;;;1.80;1.80;;;;;;;;;;6285988;28;20587;-71
2023/06/12 16:25:56;;;;;;;3.85;1.73;;;;;;;;;;6286488;28;20239;-73
2023/06/12 16:29:01;;;;;;;7.05;1.77;;;;;;;;;;6285808;28;20311;-72
2023/06/12 16:32:06;;;;;;;1.65;1.55;;;;;;;;;;6285144;28;20567;-72
2023/06/12 16:35:12;;;;;;;5.72;2.00;;;;;;;;;;6284942;28;20267;-71
2023/06/12 16:38:17;;;;;;;7.28;1.80;;;;;;;;;;6285849;28;20299;-70
2023/06/12 16:41:22;;;;;;;5.03;1.80;;;;;;;;;;6286208;28;20303;-72
2023/06/12 16:44:28;;;;;;;3.50;1.63;;;;;;;;;;6284297;28;20291;-72
2023/06/12 16:47:32;;;;;;;1.77;1.60;;;;;;;;;;6285405;28;20303;-72
2023/06/12 16:50:38;;;;;;;3.53;1.50;;;;;;;;;;6285907;28;20256;-72
2023/06/12 16:53:43;;;;;;;8.75;1.80;;;;;;;;;;6285303;28;20303;-72
2023/06/12 16:56:48;;;;;;;2.10;2.00;;;;;;;;;;6286021;28;20333;-71
2023/06/12 16:59:53;;;;;;;4.20;2.30;;;;;;;;;;6284715;28;20299;-71
2023/06/12 17:02:59;;;;;;;5.07;2.50;;;;;;;;;;6285016;28;20557;-71
2023/06/12 17:06:05;;;;;;;7.45;3.35;;;;;;;;;;6285179;28;20432;-72
2023/06/12 17:09:09;;;;;;;3.10;2.17;;;;;;;;;;6285381;28;20579;-71
2023/06/12 17:12:17;;;;;;;2.00;1.90;;;;;;;;;;6284500;28;20250;-72
2023/06/12 17:15:22;;;;;;;4.68;1.65;;;;;;;;;;6285683;28;20464;-71
2023/06/12 17:18:26;;;;;;;6.15;2.13;;;;;;;;;;6285379;28;20639;-71
2023/06/12 17:21:33;;;;;;;2.03;1.80;;;;;;;;;;6284969;28;20263;-71
2023/06/12 17:24:38;;;;;;;3.70;2.42;;;;;;;;;;6284533;28;20287;-71
2023/06/12 17:27:43;;;;;;;4.47;2.22;;;;;;;;;;6284958;28;20294;-71
2023/06/12 17:30:48;;;;;;;2.00;1.95;;;;;;;;;;6285002;28;20298;-71
2023/06/12 17:33:52;;;;;;;2.15;2.05;;;;;;;;;;6284677;28;20444;-72
2023/06/12 17:36:58;;;;;;;2.60;2.50;;;;;;;;;;6285473;28;20294;-71
2023/06/12 17:40:03;;;;;;;3.08;2.42;;;;;;;;;;6284853;28;20295;-70
2023/06/12 17:43:10;;;;;;;10.55;2.20;;;;;;;;;;6284932;28;20295;-71
2023/06/12 17:46:14;;;;;;;2.45;2.25;;;;;;;;;;6287371;28;20247;-71
2023/06/12 17:49:23;;;;;;;3.70;2.53;;;;;;;;;;6288397;28;20474;-71
2023/06/12 17:52:29;;;;;;;2.88;2.58;;;;;;;;;;6288415;28;20266;-72
2023/06/12 17:55:33;;;;;;;11.15;2.10;;;;;;;;;;6290071;28;20363;-70
2023/06/12 17:58:38;;;;;;;2.88;2.00;;;;;;;;;;6264826;28;20291;-73
2023/06/12 18:01:43;;;;;;;6.85;3.15;;;;;;;;;;6265318;28;20280;-69
2023/06/12 18:04:47;;;;;;;5.03;2.40;;;;;;;;;;6264741;28;20551;-71
2023/06/12 18:07:53;;;;;;;13.27;2.47;;;;;;;;;;6264429;28;20299;-73
2023/06/12 18:10:59;;;;;;;5.97;1.80;;;;;;;;;;6264945;28;20244;-72
2023/06/12 18:14:04;;;;;;;6.13;2.00;;;;;;;;;;6264787;28;20299;-72
2023/06/12 18:17:08;;;;;;;7.40;2.10;;;;;;;;;;6264454;28;20541;-72
2023/06/12 18:20:13;;;;;;;2.03;1.90;;;;;;;;;;6263519;28;20271;-70
2023/06/12 18:23:19;;;;;;;3.28;2.25;;;;;;;;;;6264236;28;20300;-71
2023/06/12 18:26:24;;;;;;;3.60;1.83;;;;;;;;;;6265268;28;20241;-70
2023/06/12 18:29:29;;;;;;;2.05;1.90;;;;;;;;;;6279110;28;20304;-71
2023/06/12 18:32:33;;;;;;;4.38;2.13;;;;;;;;;;6295714;28;20290;-71
2023/06/12 18:35:38;;;;;;;4.00;1.90;;;;;;;;;;6264220;28;20236;-71
2023/06/12 18:38:44;;;;;;;5.05;1.80;;;;;;;;;;6263780;28;20295;-70